createdAt,value
2023-02-19T00:01:18.461Z,0.00
2023-02-19T00:06:18.389Z,0.00
2023-02-19T00:11:18.336Z,0.00
2023-02-19T00:16:18.255Z,0.00
2023-02-19T00:21:18.198Z,0.00
2023-02-19T00:26:18.974Z,0.00
2023-02-19T00:31:18.210Z,0.00
2023-02-19T00:36:17.995Z,0.00
2023-02-19T00:41:17.948Z,0.00
2023-02-19T00:46:17.892Z,0.00
2023-02-19T00:51:17.828Z,0.00
2023-02-19T00:56:17.735Z,0.00
2023-02-19T01:01:17.719Z,0.00
2023-02-19T01:06:17.612Z,0.00
2023-02-19T01:11:17.554Z,0.00
2023-02-19T01:16:17.577Z,0.00
2023-02-19T01:21:17.412Z,0.00
2023-02-19T01:26:17.351Z,0.00
2023-02-19T01:31:17.435Z,0.00
2023-02-19T01:36:17.245Z,0.00
2023-02-19T01:41:17.158Z,0.00
2023-02-19T01:46:17.135Z,0.00
2023-02-19T01:51:17.022Z,0.00
2023-02-19T01:56:16.947Z,0.00
2023-02-19T02:01:16.890Z,0.00
2023-02-19T02:06:16.820Z,0.00
2023-02-19T02:11:16.760Z,0.00
2023-02-19T02:16:16.700Z,0.00
2023-02-19T02:21:16.630Z,0.00
2023-02-19T02:26:16.567Z,0.00
2023-02-19T02:31:16.624Z,0.00
2023-02-19T02:36:16.439Z,0.00
2023-02-19T02:41:16.375Z,0.00
2023-02-19T02:46:16.312Z,0.00
2023-02-19T02:51:16.237Z,0.00
2023-02-19T02:56:16.176Z,0.00
2023-02-19T03:01:16.142Z,0.00
2023-02-19T03:06:16.033Z,0.00
2023-02-19T03:11:15.977Z,0.00
2023-02-19T03:16:15.925Z,0.00
2023-02-19T03:21:15.844Z,0.00
2023-02-19T03:26:15.824Z,0.00
2023-02-19T03:31:15.834Z,0.00
2023-02-19T03:36:15.683Z,0.00
2023-02-19T03:41:15.582Z,0.00
2023-02-19T03:46:15.523Z,0.00
2023-02-19T03:51:15.448Z,0.00
2023-02-19T03:56:15.380Z,0.00
2023-02-19T04:01:15.324Z,0.00
2023-02-19T04:06:15.247Z,0.00
2023-02-19T04:11:15.193Z,0.00
2023-02-19T04:16:15.183Z,0.00
2023-02-19T04:21:15.061Z,0.00
2023-02-19T04:26:15.038Z,0.00
2023-02-19T04:31:15.108Z,0.00
2023-02-19T04:36:14.863Z,0.00
2023-02-19T04:41:14.793Z,0.00
2023-02-19T04:46:14.755Z,0.00
2023-02-19T04:51:14.653Z,0.00
2023-02-19T04:56:14.597Z,0.00
2023-02-19T05:01:14.861Z,0.00
2023-02-19T05:06:14.471Z,0.00
2023-02-19T05:11:14.405Z,0.00
2023-02-19T05:16:14.338Z,0.00
2023-02-19T05:21:14.260Z,0.00
2023-02-19T05:26:14.208Z,0.00
2023-02-19T05:31:14.695Z,0.00
2023-02-19T05:36:14.083Z,0.00
2023-02-19T05:41:14.002Z,0.00
2023-02-19T05:46:14.001Z,0.00
2023-02-19T05:51:13.873Z,0.00
2023-02-19T05:56:13.813Z,0.00
2023-02-19T06:01:13.740Z,0.00
2023-02-19T06:06:13.682Z,0.00
2023-02-19T06:11:13.611Z,0.00
2023-02-19T06:16:13.659Z,0.00
2023-02-19T06:21:13.599Z,0.00
2023-02-19T06:26:13.432Z,5.62
2023-02-19T06:31:13.784Z,0.00
2023-02-19T06:36:13.303Z,5.62
2023-02-19T06:41:13.595Z,11.25
2023-02-19T06:46:13.291Z,11.25
2023-02-19T06:51:13.222Z,11.25
2023-02-19T06:56:13.040Z,11.25
2023-02-19T07:01:13.296Z,16.87
2023-02-19T07:06:12.905Z,28.12
2023-02-19T07:11:12.959Z,11.25
2023-02-19T07:16:12.833Z,11.25
2023-02-19T07:21:13.069Z,22.50
2023-02-19T07:26:12.642Z,11.25
2023-02-19T07:31:13.109Z,16.87
2023-02-19T07:36:12.515Z,28.12
2023-02-19T07:41:12.740Z,56.25
2023-02-19T07:46:12.418Z,28.12
2023-02-19T07:51:12.661Z,33.75
2023-02-19T07:56:12.257Z,33.75
2023-02-19T08:01:12.479Z,50.62
2023-02-19T08:06:12.125Z,78.75
2023-02-19T08:11:12.394Z,90.00
2023-02-19T08:16:19.999Z,50.62
2023-02-19T08:21:12.286Z,67.50
2023-02-19T08:26:11.860Z,112.50
2023-02-19T08:31:12.314Z,106.87
2023-02-19T08:36:11.727Z,123.75
2023-02-19T08:41:12.198Z,50.62
2023-02-19T08:46:11.638Z,78.75
2023-02-19T08:51:12.013Z,140.62
2023-02-19T08:56:11.466Z,140.62
2023-02-19T09:01:11.866Z,90.00
2023-02-19T09:06:11.717Z,163.12
2023-02-19T09:11:11.624Z,247.50
2023-02-19T09:16:11.194Z,146.25
2023-02-19T09:21:11.438Z,151.87
2023-02-19T09:26:11.108Z,163.12
2023-02-19T09:31:11.477Z,230.62
2023-02-19T09:36:10.937Z,714.37
2023-02-19T09:41:11.230Z,1597.50
2023-02-19T09:46:10.830Z,945.00
2023-02-19T09:51:11.036Z,427.50
2023-02-19T09:56:10.674Z,309.37
2023-02-19T10:01:11.089Z,393.75
2023-02-19T10:06:11.516Z,523.12
2023-02-19T10:11:10.780Z,2446.87
2023-02-19T10:16:10.475Z,1215.00
2023-02-19T10:21:10.777Z,1119.37
2023-02-19T10:26:10.280Z,843.75
2023-02-19T10:31:10.778Z,1063.12
2023-02-19T10:36:10.149Z,663.75
2023-02-19T10:41:10.361Z,765.00
2023-02-19T10:46:10.029Z,961.87
2023-02-19T10:51:10.346Z,838.12
2023-02-19T10:56:09.883Z,697.50
2023-02-19T11:01:10.104Z,534.37
2023-02-19T11:06:09.750Z,371.25
2023-02-19T11:11:10.028Z,658.12
2023-02-19T11:16:09.650Z,658.12
2023-02-19T11:21:09.885Z,607.50
2023-02-19T11:26:09.487Z,455.62
2023-02-19T11:31:10.509Z,444.37
2023-02-19T11:36:09.357Z,556.87
2023-02-19T11:41:09.739Z,714.37
2023-02-19T11:46:09.235Z,877.50
2023-02-19T11:51:09.593Z,815.62
2023-02-19T11:56:09.102Z,579.37
2023-02-19T12:01:09.641Z,573.75
2023-02-19T12:06:09.218Z,511.87
2023-02-19T12:11:08.920Z,495.00
2023-02-19T12:16:08.859Z,489.37
2023-02-19T12:21:09.187Z,500.62
2023-02-19T12:26:09.108Z,551.25
2023-02-19T12:31:08.688Z,433.12
2023-02-19T12:36:08.861Z,371.25
2023-02-19T12:41:08.513Z,382.50
2023-02-19T12:46:08.534Z,433.12
2023-02-19T12:51:08.383Z,382.50
2023-02-19T12:56:08.327Z,315.00
2023-02-19T13:01:08.288Z,309.37
2023-02-19T13:06:10.059Z,365.62
2023-02-19T13:11:08.179Z,410.62
2023-02-19T13:16:08.058Z,528.75
2023-02-19T13:21:08.001Z,540.00
2023-02-19T13:26:07.929Z,540.00
2023-02-19T13:31:08.020Z,444.37
2023-02-19T13:36:07.887Z,382.50
2023-02-19T13:41:07.740Z,450.00
2023-02-19T13:46:07.711Z,410.62
2023-02-19T13:51:07.608Z,360.00
2023-02-19T13:56:07.535Z,337.50
2023-02-19T14:01:07.516Z,354.37
2023-02-19T14:06:07.422Z,348.75
2023-02-19T14:11:07.346Z,309.37
2023-02-19T14:16:07.352Z,253.12
2023-02-19T14:21:07.217Z,230.62
2023-02-19T14:26:07.141Z,219.37
2023-02-19T14:31:07.115Z,213.75
2023-02-19T14:36:07.023Z,225.00
2023-02-19T14:41:06.962Z,275.62
2023-02-19T14:46:06.896Z,286.87
2023-02-19T14:51:06.822Z,230.62
2023-02-19T14:56:06.752Z,202.50
2023-02-19T15:01:06.691Z,180.00
2023-02-19T15:06:06.626Z,151.87
2023-02-19T15:11:06.560Z,157.50
2023-02-19T15:16:06.540Z,135.00
2023-02-19T15:21:06.435Z,129.37
2023-02-19T15:26:06.359Z,101.25
2023-02-19T15:31:06.443Z,101.25
2023-02-19T15:36:06.230Z,101.25
2023-02-19T15:41:06.174Z,95.62
2023-02-19T15:46:06.376Z,90.00
2023-02-19T15:51:06.043Z,84.37
2023-02-19T15:56:05.972Z,90.00
2023-02-19T16:01:05.917Z,84.37
2023-02-19T16:06:05.838Z,67.50
2023-02-19T16:11:05.779Z,50.62
2023-02-19T16:16:06.095Z,39.37
2023-02-19T16:21:05.650Z,28.12
2023-02-19T16:26:05.577Z,22.50
2023-02-19T16:31:05.573Z,11.25
2023-02-19T16:36:05.446Z,5.62
2023-02-19T16:41:05.389Z,0.00
2023-02-19T16:46:05.336Z,0.00
2023-02-19T16:51:05.259Z,0.00
2023-02-19T16:56:05.182Z,0.00
2023-02-19T17:01:05.174Z,0.00
2023-02-19T17:06:05.049Z,0.00
2023-02-19T17:11:04.987Z,0.00
2023-02-19T17:16:04.942Z,0.00
2023-02-19T17:21:04.855Z,0.00
2023-02-19T17:26:04.782Z,0.00
2023-02-19T17:31:04.720Z,0.00
2023-02-19T17:36:04.651Z,0.00
2023-02-19T17:41:04.589Z,0.00
2023-02-19T17:46:04.552Z,0.00
2023-02-19T17:51:04.449Z,0.00
2023-02-19T17:56:04.390Z,0.00
2023-02-19T18:01:04.326Z,0.00
2023-02-19T18:06:04.254Z,0.00
2023-02-19T18:11:04.194Z,0.00
2023-02-19T18:16:04.275Z,0.00
2023-02-19T18:21:04.166Z,0.00
2023-02-19T18:26:04.193Z,0.00
2023-02-19T18:31:04.366Z,0.00
2023-02-19T18:36:04.163Z,0.00
2023-02-19T18:41:04.205Z,0.00
2023-02-19T18:46:04.294Z,0.00
2023-02-19T18:51:04.223Z,0.00
2023-02-19T18:56:03.606Z,0.00
2023-02-19T19:01:03.656Z,0.00
2023-02-19T19:06:03.472Z,0.00
2023-02-19T19:11:03.423Z,0.00
2023-02-19T19:16:03.405Z,0.00
2023-02-19T19:21:03.286Z,0.00
2023-02-19T19:26:03.210Z,0.00
2023-02-19T19:31:03.186Z,0.00
2023-02-19T19:36:03.079Z,0.00
2023-02-19T19:41:03.018Z,0.00
2023-02-19T19:46:02.952Z,0.00
2023-02-19T19:51:02.885Z,0.00
2023-02-19T19:56:02.812Z,0.00
2023-02-19T20:01:02.752Z,0.00
2023-02-19T20:06:02.679Z,0.00
2023-02-19T20:11:02.621Z,0.00
2023-02-19T20:16:02.621Z,0.00
2023-02-19T20:21:02.492Z,0.00
2023-02-19T20:26:02.454Z,0.00
2023-02-19T20:31:02.403Z,0.00
2023-02-19T20:36:02.278Z,0.00
2023-02-19T20:41:02.218Z,0.00
2023-02-19T20:46:02.146Z,0.00
2023-02-19T20:51:02.112Z,0.00
2023-02-19T20:56:02.012Z,0.00
2023-02-19T21:01:01.963Z,0.00
2023-02-19T21:06:01.890Z,0.00
2023-02-19T21:11:01.829Z,0.00
2023-02-19T21:16:01.767Z,0.00
2023-02-19T21:21:01.702Z,0.00
2023-02-19T21:26:01.635Z,0.00
2023-02-19T21:31:01.651Z,0.00
2023-02-19T21:36:01.498Z,0.00
2023-02-19T21:41:01.515Z,0.00
2023-02-19T21:46:01.448Z,0.00
2023-02-19T21:51:01.312Z,0.00
2023-02-19T21:56:01.235Z,0.00
2023-02-19T22:01:01.259Z,0.00
2023-02-19T22:06:01.102Z,0.00
2023-02-19T22:11:01.047Z,0.00
2023-02-19T22:16:01.017Z,0.00
2023-02-19T22:21:00.911Z,0.00
2023-02-19T22:26:00.838Z,0.00
2023-02-19T22:31:00.782Z,0.00
2023-02-19T22:36:00.708Z,0.00
2023-02-19T22:41:00.650Z,0.00
2023-02-19T22:46:00.614Z,0.00
2023-02-19T22:51:00.517Z,0.00
2023-02-19T22:56:00.444Z,0.00
2023-02-19T23:01:00.434Z,0.00
2023-02-19T23:06:00.317Z,0.00
2023-02-19T23:11:00.261Z,0.00
2023-02-19T23:16:00.187Z,0.00
2023-02-19T23:21:00.130Z,0.00
2023-02-19T23:26:00.056Z,0.00
2023-02-19T23:31:00.185Z,0.00
2023-02-19T23:35:59.935Z,0.00
2023-02-19T23:40:59.865Z,0.00
2023-02-19T23:45:59.821Z,0.00
2023-02-19T23:50:59.729Z,0.00
2023-02-19T23:55:59.656Z,0.00
